sensor_id;sensor_type;location;lat;lon;timestamp;temperature;humidity
12520;DHT22;6325;49.540;8.364;2022-09-03T00:02:25;17.90;99.90
12520;DHT22;6325;49.540;8.364;2022-09-03T00:04:59;18.10;99.90
12520;DHT22;6325;49.540;8.364;2022-09-03T00:07:41;18.30;99.90
12520;DHT22;6325;49.540;8.364;2022-09-03T00:10:13;18.00;99.90
12520;DHT22;6325;49.540;8.364;2022-09-03T00:12:51;18.40;99.90
12520;DHT22;6325;49.540;8.364;2022-09-03T00:15:31;18.30;99.90
12520;DHT22;6325;49.540;8.364;2022-09-03T00:18:04;18.50;99.90
12520;DHT22;6325;49.540;8.364;2022-09-03T00:20:38;18.40;99.90
12520;DHT22;6325;49.540;8.364;2022-09-03T00:23:15;18.40;99.90
12520;DHT22;6325;49.540;8.364;2022-09-03T00:26:03;18.50;99.90
12520;DHT22;6325;49.540;8.364;2022-09-03T00:28:40;18.50;99.90
12520;DHT22;6325;49.540;8.364;2022-09-03T00:34:14;18.50;99.90
12520;DHT22;6325;49.540;8.364;2022-09-03T00:36:47;18.70;99.90
12520;DHT22;6325;49.540;8.364;2022-09-03T00:39:18;18.60;99.90
12520;DHT22;6325;49.540;8.364;2022-09-03T00:41:56;18.50;99.90
12520;DHT22;6325;49.540;8.364;2022-09-03T00:44:48;18.20;99.90
12520;DHT22;6325;49.540;8.364;2022-09-03T00:47:23;18.20;99.90
12520;DHT22;6325;49.540;8.364;2022-09-03T00:50:02;18.60;99.90
12520;DHT22;6325;49.540;8.364;2022-09-03T00:52:46;18.40;99.90
12520;DHT22;6325;49.540;8.364;2022-09-03T00:55:27;18.40;99.90
12520;DHT22;6325;49.540;8.364;2022-09-03T00:58:11;18.10;99.90
12520;DHT22;6325;49.540;8.364;2022-09-03T01:00:58;18.30;99.90
12520;DHT22;6325;49.540;8.364;2022-09-03T01:03:39;18.40;99.90
12520;DHT22;6325;49.540;8.364;2022-09-03T01:06:16;18.50;99.90
12520;DHT22;6325;49.540;8.364;2022-09-03T01:09:06;18.20;99.90
12520;DHT22;6325;49.540;8.364;2022-09-03T01:11:46;18.20;99.90
12520;DHT22;6325;49.540;8.364;2022-09-03T01:14:32;18.30;99.90
12520;DHT22;6325;49.540;8.364;2022-09-03T01:17:05;18.30;99.90
12520;DHT22;6325;49.540;8.364;2022-09-03T01:20:10;18.20;99.90
12520;DHT22;6325;49.540;8.364;2022-09-03T01:25:56;18.20;99.90
12520;DHT22;6325;49.540;8.364;2022-09-03T01:28:58;18.10;99.90
12520;DHT22;6325;49.540;8.364;2022-09-03T01:31:36;18.10;99.90
12520;DHT22;6325;49.540;8.364;2022-09-03T01:34:15;18.20;99.90
12520;DHT22;6325;49.540;8.364;2022-09-03T01:36:54;18.20;99.90
12520;DHT22;6325;49.540;8.364;2022-09-03T01:39:32;17.90;99.90
12520;DHT22;6325;49.540;8.364;2022-09-03T01:42:22;18.50;99.90
12520;DHT22;6325;49.540;8.364;2022-09-03T01:45:08;18.40;99.90
12520;DHT22;6325;49.540;8.364;2022-09-03T01:47:55;18.30;99.90
12520;DHT22;6325;49.540;8.364;2022-09-03T01:50:41;18.00;99.90
12520;DHT22;6325;49.540;8.364;2022-09-03T01:56:31;18.00;99.90
12520;DHT22;6325;49.540;8.364;2022-09-03T01:59:10;18.00;99.90
12520;DHT22;6325;49.540;8.364;2022-09-03T02:05:20;18.50;99.90
12520;DHT22;6325;49.540;8.364;2022-09-03T02:07:53;18.10;99.90
12520;DHT22;6325;49.540;8.364;2022-09-03T02:10:24;18.30;99.90
12520;DHT22;6325;49.540;8.364;2022-09-03T02:12:57;18.20;99.90
12520;DHT22;6325;49.540;8.364;2022-09-03T02:15:26;18.60;99.90
12520;DHT22;6325;49.540;8.364;2022-09-03T02:17:58;18.20;99.90
12520;DHT22;6325;49.540;8.364;2022-09-03T02:20:28;18.10;99.90
12520;DHT22;6325;49.540;8.364;2022-09-03T02:22:57;18.60;99.90
12520;DHT22;6325;49.540;8.364;2022-09-03T02:25:31;18.10;99.90
12520;DHT22;6325;49.540;8.364;2022-09-03T02:28:01;18.20;99.90
12520;DHT22;6325;49.540;8.364;2022-09-03T02:30:30;18.20;99.90
12520;DHT22;6325;49.540;8.364;2022-09-03T02:32:58;18.20;99.90
12520;DHT22;6325;49.540;8.364;2022-09-03T02:35:25;18.70;99.90
12520;DHT22;6325;49.540;8.364;2022-09-03T02:37:53;18.00;99.90
12520;DHT22;6325;49.540;8.364;2022-09-03T02:40:20;18.20;99.90
12520;DHT22;6325;49.540;8.364;2022-09-03T02:42:47;17.90;99.90
12520;DHT22;6325;49.540;8.364;2022-09-03T02:45:21;18.80;99.90
12520;DHT22;6325;49.540;8.364;2022-09-03T02:47:52;18.10;99.90
12520;DHT22;6325;49.540;8.364;2022-09-03T02:50:20;18.80;99.90
12520;DHT22;6325;49.540;8.364;2022-09-03T02:52:47;18.20;99.90
12520;DHT22;6325;49.540;8.364;2022-09-03T02:55:16;18.20;99.90
12520;DHT22;6325;49.540;8.364;2022-09-03T02:57:43;18.10;99.90
12520;DHT22;6325;49.540;8.364;2022-09-03T03:00:11;18.40;99.90
12520;DHT22;6325;49.540;8.364;2022-09-03T03:02:38;18.10;99.90
12520;DHT22;6325;49.540;8.364;2022-09-03T03:05:06;17.50;99.90
12520;DHT22;6325;49.540;8.364;2022-09-03T03:07:39;18.10;99.90
12520;DHT22;6325;49.540;8.364;2022-09-03T03:10:07;18.00;99.90
12520;DHT22;6325;49.540;8.364;2022-09-03T03:12:36;18.10;99.90
12520;DHT22;6325;49.540;8.364;2022-09-03T03:15:03;18.30;99.90
12520;DHT22;6325;49.540;8.364;2022-09-03T03:17:30;18.00;99.90
12520;DHT22;6325;49.540;8.364;2022-09-03T03:19:57;17.90;99.90
12520;DHT22;6325;49.540;8.364;2022-09-03T03:22:24;17.90;99.90
12520;DHT22;6325;49.540;8.364;2022-09-03T03:24:51;17.90;99.90
12520;DHT22;6325;49.540;8.364;2022-09-03T03:27:19;18.30;99.90
12520;DHT22;6325;49.540;8.364;2022-09-03T03:29:48;17.90;99.90
12520;DHT22;6325;49.540;8.364;2022-09-03T03:32:15;17.90;99.90
12520;DHT22;6325;49.540;8.364;2022-09-03T03:34:42;17.30;99.90
12520;DHT22;6325;49.540;8.364;2022-09-03T03:37:09;18.10;99.90
12520;DHT22;6325;49.540;8.364;2022-09-03T03:39:36;18.10;99.90
12520;DHT22;6325;49.540;8.364;2022-09-03T03:42:03;17.80;99.90
12520;DHT22;6325;49.540;8.364;2022-09-03T03:44:30;17.80;99.90
12520;DHT22;6325;49.540;8.364;2022-09-03T03:46:58;17.80;99.90
12520;DHT22;6325;49.540;8.364;2022-09-03T03:49:25;17.50;99.90
12520;DHT22;6325;49.540;8.364;2022-09-03T03:51:52;18.10;99.90
12520;DHT22;6325;49.540;8.364;2022-09-03T03:54:19;17.80;99.90
12520;DHT22;6325;49.540;8.364;2022-09-03T03:56:46;17.70;99.90
12520;DHT22;6325;49.540;8.364;2022-09-03T03:59:13;17.80;99.90
12520;DHT22;6325;49.540;8.364;2022-09-03T04:01:40;18.20;99.90
12520;DHT22;6325;49.540;8.364;2022-09-03T04:04:08;17.80;99.90
12520;DHT22;6325;49.540;8.364;2022-09-03T04:06:35;17.70;99.90
12520;DHT22;6325;49.540;8.364;2022-09-03T04:09:02;17.90;99.90
12520;DHT22;6325;49.540;8.364;2022-09-03T04:11:29;17.80;99.90
12520;DHT22;6325;49.540;8.364;2022-09-03T04:13:56;17.80;99.90
12520;DHT22;6325;49.540;8.364;2022-09-03T04:16:25;17.20;99.90
12520;DHT22;6325;49.540;8.364;2022-09-03T04:18:53;17.80;99.90
12520;DHT22;6325;49.540;8.364;2022-09-03T04:21:25;17.50;99.90
12520;DHT22;6325;49.540;8.364;2022-09-03T04:23:52;17.50;99.90
12520;DHT22;6325;49.540;8.364;2022-09-03T04:26:23;17.70;99.90
12520;DHT22;6325;49.540;8.364;2022-09-03T04:28:50;18.10;99.90
12520;DHT22;6325;49.540;8.364;2022-09-03T04:31:19;17.80;99.90
12520;DHT22;6325;49.540;8.364;2022-09-03T04:33:46;17.80;99.90
12520;DHT22;6325;49.540;8.364;2022-09-03T04:36:14;18.20;99.90
12520;DHT22;6325;49.540;8.364;2022-09-03T04:38:44;17.90;99.90
12520;DHT22;6325;49.540;8.364;2022-09-03T04:41:13;18.20;99.90
12520;DHT22;6325;49.540;8.364;2022-09-03T04:43:41;17.90;99.90
12520;DHT22;6325;49.540;8.364;2022-09-03T04:46:09;17.70;99.90
12520;DHT22;6325;49.540;8.364;2022-09-03T04:48:36;17.50;99.90
12520;DHT22;6325;49.540;8.364;2022-09-03T04:51:05;18.00;99.90
12520;DHT22;6325;49.540;8.364;2022-09-03T04:53:34;18.10;99.90
12520;DHT22;6325;49.540;8.364;2022-09-03T04:56:10;18.00;99.90
12520;DHT22;6325;49.540;8.364;2022-09-03T04:58:37;17.80;99.90
12520;DHT22;6325;49.540;8.364;2022-09-03T05:01:07;18.30;99.90
12520;DHT22;6325;49.540;8.364;2022-09-03T05:03:34;17.80;99.90
12520;DHT22;6325;49.540;8.364;2022-09-03T05:06:02;17.80;99.90
12520;DHT22;6325;49.540;8.364;2022-09-03T05:08:30;17.70;99.90
12520;DHT22;6325;49.540;8.364;2022-09-03T05:10:58;18.00;99.90
12520;DHT22;6325;49.540;8.364;2022-09-03T05:13:27;17.50;99.90
12520;DHT22;6325;49.540;8.364;2022-09-03T05:15:58;17.80;99.90
12520;DHT22;6325;49.540;8.364;2022-09-03T05:18:26;17.50;99.90
12520;DHT22;6325;49.540;8.364;2022-09-03T05:20:57;17.40;99.90
12520;DHT22;6325;49.540;8.364;2022-09-03T05:23:25;17.40;99.90
12520;DHT22;6325;49.540;8.364;2022-09-03T05:25:54;17.80;99.90
12520;DHT22;6325;49.540;8.364;2022-09-03T05:28:23;17.30;99.90
12520;DHT22;6325;49.540;8.364;2022-09-03T05:30:58;17.60;99.90
12520;DHT22;6325;49.540;8.364;2022-09-03T05:33:25;16.80;99.90
12520;DHT22;6325;49.540;8.364;2022-09-03T05:35:52;17.20;99.90
12520;DHT22;6325;49.540;8.364;2022-09-03T05:38:20;17.30;99.90
12520;DHT22;6325;49.540;8.364;2022-09-03T05:40:47;17.30;99.90
12520;DHT22;6325;49.540;8.364;2022-09-03T05:43:14;17.40;99.90
12520;DHT22;6325;49.540;8.364;2022-09-03T05:45:42;17.40;99.90
12520;DHT22;6325;49.540;8.364;2022-09-03T05:48:10;17.40;99.90
12520;DHT22;6325;49.540;8.364;2022-09-03T05:50:37;17.20;99.90
12520;DHT22;6325;49.540;8.364;2022-09-03T05:53:04;17.60;99.90
12520;DHT22;6325;49.540;8.364;2022-09-03T05:55:31;17.20;99.90
12520;DHT22;6325;49.540;8.364;2022-09-03T05:57:58;17.80;99.90
12520;DHT22;6325;49.540;8.364;2022-09-03T06:00:26;17.70;99.90
12520;DHT22;6325;49.540;8.364;2022-09-03T06:02:53;17.80;99.90
12520;DHT22;6325;49.540;8.364;2022-09-03T06:05:21;17.90;99.90
12520;DHT22;6325;49.540;8.364;2022-09-03T06:07:48;18.20;99.90
12520;DHT22;6325;49.540;8.364;2022-09-03T06:10:17;18.60;99.90
12520;DHT22;6325;49.540;8.364;2022-09-03T06:12:50;18.30;99.90
12520;DHT22;6325;49.540;8.364;2022-09-03T06:15:17;17.60;99.90
12520;DHT22;6325;49.540;8.364;2022-09-03T06:17:44;18.10;99.90
12520;DHT22;6325;49.540;8.364;2022-09-03T06:20:11;17.70;99.90
12520;DHT22;6325;49.540;8.364;2022-09-03T06:22:39;18.10;99.90
12520;DHT22;6325;49.540;8.364;2022-09-03T06:25:10;18.60;99.90
12520;DHT22;6325;49.540;8.364;2022-09-03T06:27:37;18.20;99.90
12520;DHT22;6325;49.540;8.364;2022-09-03T06:30:05;18.70;99.90
12520;DHT22;6325;49.540;8.364;2022-09-03T06:32:32;18.00;99.90
12520;DHT22;6325;49.540;8.364;2022-09-03T06:35:08;18.50;99.90
12520;DHT22;6325;49.540;8.364;2022-09-03T06:46:23;17.40;99.90
12520;DHT22;6325;49.540;8.364;2022-09-03T06:48:54;17.70;99.90
12520;DHT22;6325;49.540;8.364;2022-09-03T06:51:23;17.70;99.90
12520;DHT22;6325;49.540;8.364;2022-09-03T06:53:51;17.40;99.90
12520;DHT22;6325;49.540;8.364;2022-09-03T06:56:20;17.50;99.90
12520;DHT22;6325;49.540;8.364;2022-09-03T06:58:51;17.10;99.90
12520;DHT22;6325;49.540;8.364;2022-09-03T07:01:25;17.20;99.90
12520;DHT22;6325;49.540;8.364;2022-09-03T07:03:55;17.80;99.90
12520;DHT22;6325;49.540;8.364;2022-09-03T07:06:25;17.30;99.90
12520;DHT22;6325;49.540;8.364;2022-09-03T07:08:52;17.30;99.90
12520;DHT22;6325;49.540;8.364;2022-09-03T07:11:21;16.80;99.90
12520;DHT22;6325;49.540;8.364;2022-09-03T07:13:51;17.30;99.90
12520;DHT22;6325;49.540;8.364;2022-09-03T07:16:19;16.70;99.90
12520;DHT22;6325;49.540;8.364;2022-09-03T07:18:48;16.90;99.90
12520;DHT22;6325;49.540;8.364;2022-09-03T07:21:17;17.20;99.90
12520;DHT22;6325;49.540;8.364;2022-09-03T07:23:44;17.30;99.90
12520;DHT22;6325;49.540;8.364;2022-09-03T07:26:13;17.30;99.90
12520;DHT22;6325;49.540;8.364;2022-09-03T07:28:42;16.80;99.90
12520;DHT22;6325;49.540;8.364;2022-09-03T07:31:12;17.40;99.90
12520;DHT22;6325;49.540;8.364;2022-09-03T07:33:40;17.10;99.90
12520;DHT22;6325;49.540;8.364;2022-09-03T07:36:10;17.90;99.90
12520;DHT22;6325;49.540;8.364;2022-09-03T07:38:39;17.30;99.90
12520;DHT22;6325;49.540;8.364;2022-09-03T07:41:08;17.50;99.90
12520;DHT22;6325;49.540;8.364;2022-09-03T07:43:37;17.80;99.90
12520;DHT22;6325;49.540;8.364;2022-09-03T07:46:05;17.50;99.90
12520;DHT22;6325;49.540;8.364;2022-09-03T07:48:33;17.10;99.90
12520;DHT22;6325;49.540;8.364;2022-09-03T07:51:00;17.20;99.90
12520;DHT22;6325;49.540;8.364;2022-09-03T07:53:28;17.50;99.90
12520;DHT22;6325;49.540;8.364;2022-09-03T07:56:01;17.50;99.90
12520;DHT22;6325;49.540;8.364;2022-09-03T07:58:28;17.80;99.90
12520;DHT22;6325;49.540;8.364;2022-09-03T08:00:56;17.70;99.90
12520;DHT22;6325;49.540;8.364;2022-09-03T08:03:23;18.00;99.90
12520;DHT22;6325;49.540;8.364;2022-09-03T08:05:49;17.90;99.90
12520;DHT22;6325;49.540;8.364;2022-09-03T08:08:16;18.10;99.90
12520;DHT22;6325;49.540;8.364;2022-09-03T08:10:45;17.50;99.90
12520;DHT22;6325;49.540;8.364;2022-09-03T08:13:12;17.80;99.90
12520;DHT22;6325;49.540;8.364;2022-09-03T08:15:38;18.40;99.90
12520;DHT22;6325;49.540;8.364;2022-09-03T08:18:07;17.60;99.90
12520;DHT22;6325;49.540;8.364;2022-09-03T08:20:36;18.20;99.90
12520;DHT22;6325;49.540;8.364;2022-09-03T08:23:03;18.10;99.90
12520;DHT22;6325;49.540;8.364;2022-09-03T08:25:30;17.90;99.90
12520;DHT22;6325;49.540;8.364;2022-09-03T08:28:13;17.90;99.90
12520;DHT22;6325;49.540;8.364;2022-09-03T08:30:40;18.60;99.90
12520;DHT22;6325;49.540;8.364;2022-09-03T08:33:07;17.50;99.90
12520;DHT22;6325;49.540;8.364;2022-09-03T08:35:34;17.90;99.90
12520;DHT22;6325;49.540;8.364;2022-09-03T08:38:02;17.70;99.90
12520;DHT22;6325;49.540;8.364;2022-09-03T08:40:32;18.10;99.90
12520;DHT22;6325;49.540;8.364;2022-09-03T08:43:11;17.60;99.90
12520;DHT22;6325;49.540;8.364;2022-09-03T08:45:42;17.40;99.90
12520;DHT22;6325;49.540;8.364;2022-09-03T08:48:12;17.80;99.90
12520;DHT22;6325;49.540;8.364;2022-09-03T08:50:43;17.90;99.90
12520;DHT22;6325;49.540;8.364;2022-09-03T08:53:15;17.70;99.90
12520;DHT22;6325;49.540;8.364;2022-09-03T08:55:49;17.60;99.90
12520;DHT22;6325;49.540;8.364;2022-09-03T08:58:19;17.60;99.90
12520;DHT22;6325;49.540;8.364;2022-09-03T09:00:49;17.20;99.90
12520;DHT22;6325;49.540;8.364;2022-09-03T09:03:41;17.70;99.90
12520;DHT22;6325;49.540;8.364;2022-09-03T09:06:18;17.70;99.90
12520;DHT22;6325;49.540;8.364;2022-09-03T09:09:11;17.80;99.90
12520;DHT22;6325;49.540;8.364;2022-09-03T09:11:47;17.70;99.90
12520;DHT22;6325;49.540;8.364;2022-09-03T09:14:21;17.60;99.90
12520;DHT22;6325;49.540;8.364;2022-09-03T09:16:58;17.90;99.90
12520;DHT22;6325;49.540;8.364;2022-09-03T09:19:38;18.00;99.90
12520;DHT22;6325;49.540;8.364;2022-09-03T09:22:09;18.10;99.90
12520;DHT22;6325;49.540;8.364;2022-09-03T09:24:39;18.10;99.90
12520;DHT22;6325;49.540;8.364;2022-09-03T09:27:07;18.50;99.90
12520;DHT22;6325;49.540;8.364;2022-09-03T09:29:37;18.10;99.90
12520;DHT22;6325;49.540;8.364;2022-09-03T09:32:08;18.50;99.90
12520;DHT22;6325;49.540;8.364;2022-09-03T09:34:37;18.30;99.90
12520;DHT22;6325;49.540;8.364;2022-09-03T09:37:09;18.90;99.90
12520;DHT22;6325;49.540;8.364;2022-09-03T09:39:38;18.70;99.90
12520;DHT22;6325;49.540;8.364;2022-09-03T09:42:06;18.30;99.90
12520;DHT22;6325;49.540;8.364;2022-09-03T09:44:35;18.30;99.90
12520;DHT22;6325;49.540;8.364;2022-09-03T09:47:05;18.70;99.90
12520;DHT22;6325;49.540;8.364;2022-09-03T09:49:34;19.30;99.90
12520;DHT22;6325;49.540;8.364;2022-09-03T09:52:06;19.40;99.90
12520;DHT22;6325;49.540;8.364;2022-09-03T09:54:34;19.30;99.90
12520;DHT22;6325;49.540;8.364;2022-09-03T09:57:02;19.10;99.90
12520;DHT22;6325;49.540;8.364;2022-09-03T09:59:31;19.50;99.90
12520;DHT22;6325;49.540;8.364;2022-09-03T10:02:10;19.40;99.90
12520;DHT22;6325;49.540;8.364;2022-09-03T10:04:38;19.70;99.90
12520;DHT22;6325;49.540;8.364;2022-09-03T10:07:22;19.80;99.90
12520;DHT22;6325;49.540;8.364;2022-09-03T10:09:58;19.60;99.90
12520;DHT22;6325;49.540;8.364;2022-09-03T10:12:30;19.80;99.90
12520;DHT22;6325;49.540;8.364;2022-09-03T10:15:04;19.90;99.90
12520;DHT22;6325;49.540;8.364;2022-09-03T10:17:42;20.00;99.90
12520;DHT22;6325;49.540;8.364;2022-09-03T10:20:13;20.10;99.90
12520;DHT22;6325;49.540;8.364;2022-09-03T10:23:02;20.50;99.90
12520;DHT22;6325;49.540;8.364;2022-09-03T10:25:37;20.50;99.90
12520;DHT22;6325;49.540;8.364;2022-09-03T10:28:08;20.90;99.90
12520;DHT22;6325;49.540;8.364;2022-09-03T10:30:46;20.00;99.90
12520;DHT22;6325;49.540;8.364;2022-09-03T10:33:22;20.90;99.90
12520;DHT22;6325;49.540;8.364;2022-09-03T10:35:54;21.10;99.90
12520;DHT22;6325;49.540;8.364;2022-09-03T10:38:27;21.20;99.90
12520;DHT22;6325;49.540;8.364;2022-09-03T10:41:05;21.50;99.90
12520;DHT22;6325;49.540;8.364;2022-09-03T10:43:56;21.50;99.90
12520;DHT22;6325;49.540;8.364;2022-09-03T10:46:34;21.80;99.90
12520;DHT22;6325;49.540;8.364;2022-09-03T10:49:30;21.30;99.90
12520;DHT22;6325;49.540;8.364;2022-09-03T10:52:04;21.50;99.90
12520;DHT22;6325;49.540;8.364;2022-09-03T10:54:51;22.10;99.90
12520;DHT22;6325;49.540;8.364;2022-09-03T10:57:30;22.30;99.90
12520;DHT22;6325;49.540;8.364;2022-09-03T11:00:04;22.30;99.90
12520;DHT22;6325;49.540;8.364;2022-09-03T11:02:46;22.10;99.90
12520;DHT22;6325;49.540;8.364;2022-09-03T11:05:20;21.80;99.90
12520;DHT22;6325;49.540;8.364;2022-09-03T11:07:52;22.10;99.90
12520;DHT22;6325;49.540;8.364;2022-09-03T11:10:26;22.10;99.90
12520;DHT22;6325;49.540;8.364;2022-09-03T11:13:01;22.00;99.90
12520;DHT22;6325;49.540;8.364;2022-09-03T11:15:32;21.70;99.90
12520;DHT22;6325;49.540;8.364;2022-09-03T11:18:13;22.00;99.90
12520;DHT22;6325;49.540;8.364;2022-09-03T11:20:43;22.10;99.90
12520;DHT22;6325;49.540;8.364;2022-09-03T11:23:10;22.20;99.90
12520;DHT22;6325;49.540;8.364;2022-09-03T11:25:42;22.40;99.90
12520;DHT22;6325;49.540;8.364;2022-09-03T11:28:20;22.30;99.90
12520;DHT22;6325;49.540;8.364;2022-09-03T11:31:05;22.20;99.90
12520;DHT22;6325;49.540;8.364;2022-09-03T11:33:40;22.00;99.90
12520;DHT22;6325;49.540;8.364;2022-09-03T11:36:11;22.30;99.90
12520;DHT22;6325;49.540;8.364;2022-09-03T11:38:38;22.40;99.90
12520;DHT22;6325;49.540;8.364;2022-09-03T11:41:11;22.60;99.90
12520;DHT22;6325;49.540;8.364;2022-09-03T11:43:40;22.60;99.90
12520;DHT22;6325;49.540;8.364;2022-09-03T11:46:10;22.60;99.90
12520;DHT22;6325;49.540;8.364;2022-09-03T11:48:41;23.30;99.90
12520;DHT22;6325;49.540;8.364;2022-09-03T11:51:30;23.00;99.90
12520;DHT22;6325;49.540;8.364;2022-09-03T11:53:59;23.60;99.90
12520;DHT22;6325;49.540;8.364;2022-09-03T11:56:27;23.10;99.90
12520;DHT22;6325;49.540;8.364;2022-09-03T11:59:17;23.40;99.90
12520;DHT22;6325;49.540;8.364;2022-09-03T12:01:48;22.90;99.90
12520;DHT22;6325;49.540;8.364;2022-09-03T12:04:19;23.00;99.90
12520;DHT22;6325;49.540;8.364;2022-09-03T12:07:00;22.70;99.90
12520;DHT22;6325;49.540;8.364;2022-09-03T12:12:51;22.70;99.90
12520;DHT22;6325;49.540;8.364;2022-09-03T12:15:39;23.10;99.90
12520;DHT22;6325;49.540;8.364;2022-09-03T12:18:11;23.00;99.90
12520;DHT22;6325;49.540;8.364;2022-09-03T12:20:46;23.50;99.90
12520;DHT22;6325;49.540;8.364;2022-09-03T12:23:27;23.60;99.90
12520;DHT22;6325;49.540;8.364;2022-09-03T12:25:55;23.70;99.90
12520;DHT22;6325;49.540;8.364;2022-09-03T12:28:25;24.50;99.90
12520;DHT22;6325;49.540;8.364;2022-09-03T12:31:04;24.10;99.90
12520;DHT22;6325;49.540;8.364;2022-09-03T12:33:31;24.10;99.90
12520;DHT22;6325;49.540;8.364;2022-09-03T12:35:59;24.20;99.90
12520;DHT22;6325;49.540;8.364;2022-09-03T12:38:28;24.80;99.90
12520;DHT22;6325;49.540;8.364;2022-09-03T12:40:57;24.80;99.90
12520;DHT22;6325;49.540;8.364;2022-09-03T12:43:27;24.60;99.90
12520;DHT22;6325;49.540;8.364;2022-09-03T12:45:54;24.20;99.90
12520;DHT22;6325;49.540;8.364;2022-09-03T12:48:22;24.50;99.90
12520;DHT22;6325;49.540;8.364;2022-09-03T12:51:01;24.50;99.90
12520;DHT22;6325;49.540;8.364;2022-09-03T12:53:31;24.60;99.90
12520;DHT22;6325;49.540;8.364;2022-09-03T12:56:00;24.80;99.90
12520;DHT22;6325;49.540;8.364;2022-09-03T12:58:31;25.00;99.90
12520;DHT22;6325;49.540;8.364;2022-09-03T13:01:05;25.20;99.90
12520;DHT22;6325;49.540;8.364;2022-09-03T13:03:44;25.10;99.90
12520;DHT22;6325;49.540;8.364;2022-09-03T13:06:14;25.10;99.90
12520;DHT22;6325;49.540;8.364;2022-09-03T13:08:47;24.90;99.90
12520;DHT22;6325;49.540;8.364;2022-09-03T13:11:18;25.20;99.90
12520;DHT22;6325;49.540;8.364;2022-09-03T13:13:53;24.70;99.90
12520;DHT22;6325;49.540;8.364;2022-09-03T13:16:49;24.40;99.90
12520;DHT22;6325;49.540;8.364;2022-09-03T13:19:25;24.60;99.90
12520;DHT22;6325;49.540;8.364;2022-09-03T13:22:04;24.60;99.90
12520;DHT22;6325;49.540;8.364;2022-09-03T13:24:48;24.90;99.90
12520;DHT22;6325;49.540;8.364;2022-09-03T13:27:27;24.70;99.90
12520;DHT22;6325;49.540;8.364;2022-09-03T13:30:06;24.90;99.90
12520;DHT22;6325;49.540;8.364;2022-09-03T13:32:52;25.10;99.90
12520;DHT22;6325;49.540;8.364;2022-09-03T13:35:28;25.60;99.90
12520;DHT22;6325;49.540;8.364;2022-09-03T13:38:13;25.60;99.90
12520;DHT22;6325;49.540;8.364;2022-09-03T13:40:49;25.70;99.90
12520;DHT22;6325;49.540;8.364;2022-09-03T13:43:26;25.90;99.90
12520;DHT22;6325;49.540;8.364;2022-09-03T13:45:57;25.50;99.90
12520;DHT22;6325;49.540;8.364;2022-09-03T13:48:29;25.50;99.90
12520;DHT22;6325;49.540;8.364;2022-09-03T13:51:19;25.50;99.90
12520;DHT22;6325;49.540;8.364;2022-09-03T13:53:57;25.80;99.90
12520;DHT22;6325;49.540;8.364;2022-09-03T13:56:34;25.20;99.90
12520;DHT22;6325;49.540;8.364;2022-09-03T13:59:06;25.00;99.90
12520;DHT22;6325;49.540;8.364;2022-09-03T14:01:44;24.70;99.90
12520;DHT22;6325;49.540;8.364;2022-09-03T14:04:20;24.80;99.90
12520;DHT22;6325;49.540;8.364;2022-09-03T14:06:55;24.50;99.90
12520;DHT22;6325;49.540;8.364;2022-09-03T14:09:32;24.10;99.90
12520;DHT22;6325;49.540;8.364;2022-09-03T14:12:12;23.90;99.90
12520;DHT22;6325;49.540;8.364;2022-09-03T14:14:48;23.80;99.90
12520;DHT22;6325;49.540;8.364;2022-09-03T14:17:36;23.80;99.90
12520;DHT22;6325;49.540;8.364;2022-09-03T14:20:11;23.30;99.90
12520;DHT22;6325;49.540;8.364;2022-09-03T14:22:47;24.00;99.90
12520;DHT22;6325;49.540;8.364;2022-09-03T14:25:17;23.50;99.90
12520;DHT22;6325;49.540;8.364;2022-09-03T14:27:47;23.30;99.90
12520;DHT22;6325;49.540;8.364;2022-09-03T14:30:24;23.50;99.90
12520;DHT22;6325;49.540;8.364;2022-09-03T14:32:57;22.90;99.90
12520;DHT22;6325;49.540;8.364;2022-09-03T14:35:37;23.40;99.90
12520;DHT22;6325;49.540;8.364;2022-09-03T14:41:27;23.50;99.90
12520;DHT22;6325;49.540;8.364;2022-09-03T14:47:08;23.90;99.90
12520;DHT22;6325;49.540;8.364;2022-09-03T14:50:08;23.40;99.90
12520;DHT22;6325;49.540;8.364;2022-09-03T14:53:00;23.50;99.90
12520;DHT22;6325;49.540;8.364;2022-09-03T14:55:55;23.60;99.90
12520;DHT22;6325;49.540;8.364;2022-09-03T14:58:42;23.40;99.90
12520;DHT22;6325;49.540;8.364;2022-09-03T15:01:17;23.70;99.90
12520;DHT22;6325;49.540;8.364;2022-09-03T15:04:11;23.30;99.90
12520;DHT22;6325;49.540;8.364;2022-09-03T15:06:49;23.20;99.90
12520;DHT22;6325;49.540;8.364;2022-09-03T15:09:26;23.30;99.90
12520;DHT22;6325;49.540;8.364;2022-09-03T15:11:56;23.50;99.90
12520;DHT22;6325;49.540;8.364;2022-09-03T15:14:28;22.80;99.90
12520;DHT22;6325;49.540;8.364;2022-09-03T15:17:15;23.50;99.90
12520;DHT22;6325;49.540;8.364;2022-09-03T15:20:04;23.20;99.90
12520;DHT22;6325;49.540;8.364;2022-09-03T15:25:40;23.10;99.90
12520;DHT22;6325;49.540;8.364;2022-09-03T15:28:14;22.90;99.90
12520;DHT22;6325;49.540;8.364;2022-09-03T15:30:49;22.80;99.90
12520;DHT22;6325;49.540;8.364;2022-09-03T15:33:27;23.00;99.90
12520;DHT22;6325;49.540;8.364;2022-09-03T15:36:12;22.40;99.90
12520;DHT22;6325;49.540;8.364;2022-09-03T15:38:47;22.40;99.90
12520;DHT22;6325;49.540;8.364;2022-09-03T15:41:28;22.10;99.90
12520;DHT22;6325;49.540;8.364;2022-09-03T15:43:58;22.10;99.90
12520;DHT22;6325;49.540;8.364;2022-09-03T15:46:37;21.70;99.90
12520;DHT22;6325;49.540;8.364;2022-09-03T15:49:22;22.10;99.90
12520;DHT22;6325;49.540;8.364;2022-09-03T15:51:59;22.50;99.90
12520;DHT22;6325;49.540;8.364;2022-09-03T15:54:37;22.90;99.90
12520;DHT22;6325;49.540;8.364;2022-09-03T15:57:11;22.00;99.90
12520;DHT22;6325;49.540;8.364;2022-09-03T15:59:42;21.80;99.90
12520;DHT22;6325;49.540;8.364;2022-09-03T16:02:15;21.70;99.90
12520;DHT22;6325;49.540;8.364;2022-09-03T16:05:00;21.60;99.90
12520;DHT22;6325;49.540;8.364;2022-09-03T16:07:43;21.70;99.90
12520;DHT22;6325;49.540;8.364;2022-09-03T16:10:15;21.60;99.90
12520;DHT22;6325;49.540;8.364;2022-09-03T16:12:51;21.70;99.90
12520;DHT22;6325;49.540;8.364;2022-09-03T16:15:39;21.50;99.90
12520;DHT22;6325;49.540;8.364;2022-09-03T16:18:12;21.30;99.90
12520;DHT22;6325;49.540;8.364;2022-09-03T16:20:45;21.50;99.90
12520;DHT22;6325;49.540;8.364;2022-09-03T16:23:19;21.20;99.90
12520;DHT22;6325;49.540;8.364;2022-09-03T16:25:50;21.00;99.90
12520;DHT22;6325;49.540;8.364;2022-09-03T16:28:19;20.70;99.90
12520;DHT22;6325;49.540;8.364;2022-09-03T16:31:00;21.00;99.90
12520;DHT22;6325;49.540;8.364;2022-09-03T16:33:36;20.90;99.90
12520;DHT22;6325;49.540;8.364;2022-09-03T16:36:22;21.00;99.90
12520;DHT22;6325;49.540;8.364;2022-09-03T16:38:59;20.80;99.90
12520;DHT22;6325;49.540;8.364;2022-09-03T16:41:34;20.70;99.90
12520;DHT22;6325;49.540;8.364;2022-09-03T16:44:06;20.90;99.90
12520;DHT22;6325;49.540;8.364;2022-09-03T16:46:40;20.70;99.90
12520;DHT22;6325;49.540;8.364;2022-09-03T16:49:23;20.60;99.90
12520;DHT22;6325;49.540;8.364;2022-09-03T16:52:01;20.70;99.90
12520;DHT22;6325;49.540;8.364;2022-09-03T16:54:40;20.80;99.90
12520;DHT22;6325;49.540;8.364;2022-09-03T16:57:18;21.10;99.90
12520;DHT22;6325;49.540;8.364;2022-09-03T17:00:02;20.10;99.90